sensor_id;sensor_type;location;lat;lon;timestamp;pressure;altitude;pressure_sealevel;temperature;humidity
20027;BME280;10174;42.688;23.344;2022-12-29T00:01:30;96244.81;;;4.10;85.29
20027;BME280;10174;42.688;23.344;2022-12-29T00:03:56;96288.94;;;4.46;85.05
20027;BME280;10174;42.688;23.344;2022-12-29T00:06:22;96293.91;;;4.63;84.62
20027;BME280;10174;42.688;23.344;2022-12-29T00:08:47;96266.19;;;4.37;84.43
20027;BME280;10174;42.688;23.344;2022-12-29T00:11:15;96235.00;;;4.18;84.79
20027;BME280;10174;42.688;23.344;2022-12-29T00:13:41;96297.31;;;4.50;84.72
20027;BME280;10174;42.688;23.344;2022-12-29T00:16:25;96296.50;;;4.50;84.78
20027;BME280;10174;42.688;23.344;2022-12-29T00:18:51;96296.56;;;4.63;84.44
20027;BME280;10174;42.688;23.344;2022-12-29T00:21:19;96294.50;;;4.65;85.02
20027;BME280;10174;42.688;23.344;2022-12-29T00:24:03;96294.91;;;4.62;83.83
20027;BME280;10174;42.688;23.344;2022-12-29T00:29:50;96287.94;;;4.61;84.55
20027;BME280;10174;42.688;23.344;2022-12-29T00:32:34;96312.94;;;4.60;83.97
20027;BME280;10174;42.688;23.344;2022-12-29T00:35:27;96284.25;;;4.55;83.89
20027;BME280;10174;42.688;23.344;2022-12-29T00:37:55;96306.81;;;4.66;83.53
20027;BME280;10174;42.688;23.344;2022-12-29T00:40:40;96317.03;;;4.69;83.39
20027;BME280;10174;42.688;23.344;2022-12-29T00:43:25;96309.06;;;4.76;82.72
20027;BME280;10174;42.688;23.344;2022-12-29T00:46:09;96235.00;;;4.18;82.56
20027;BME280;10174;42.688;23.344;2022-12-29T00:48:34;96299.63;;;4.60;82.93
20027;BME280;10174;42.688;23.344;2022-12-29T00:51:18;96299.97;;;4.50;82.72
20027;BME280;10174;42.688;23.344;2022-12-29T00:53:43;96317.25;;;4.68;82.68
20027;BME280;10174;42.688;23.344;2022-12-29T00:56:09;96318.25;;;4.67;82.86
20027;BME280;10174;42.688;23.344;2022-12-29T00:58:34;96311.28;;;4.66;82.68
20027;BME280;10174;42.688;23.344;2022-12-29T01:01:07;96307.63;;;4.67;83.02
20027;BME280;10174;42.688;23.344;2022-12-29T01:03:35;96320.09;;;4.66;82.61
20027;BME280;10174;42.688;23.344;2022-12-29T01:06:05;96316.81;;;4.64;82.77
20027;BME280;10174;42.688;23.344;2022-12-29T01:08:31;96317.66;;;4.71;83.27
20027;BME280;10174;42.688;23.344;2022-12-29T01:11:07;96315.41;;;4.68;82.59
20027;BME280;10174;42.688;23.344;2022-12-29T01:13:32;96307.81;;;4.58;83.11
20027;BME280;10174;42.688;23.344;2022-12-29T01:15:58;96237.66;;;4.11;82.88
20027;BME280;10174;42.688;23.344;2022-12-29T01:18:24;96305.75;;;4.54;83.05
20027;BME280;10174;42.688;23.344;2022-12-29T01:20:51;96306.28;;;4.36;83.89
20027;BME280;10174;42.688;23.344;2022-12-29T01:23:17;96268.34;;;4.14;84.44
20027;BME280;10174;42.688;23.344;2022-12-29T01:25:42;96294.00;;;4.35;84.42
20027;BME280;10174;42.688;23.344;2022-12-29T01:28:07;96303.66;;;4.42;83.75
20027;BME280;10174;42.688;23.344;2022-12-29T01:30:34;96307.34;;;4.41;84.10
20027;BME280;10174;42.688;23.344;2022-12-29T01:33:00;96213.22;;;3.81;84.08
20027;BME280;10174;42.688;23.344;2022-12-29T01:35:26;96278.38;;;4.18;83.50
20027;BME280;10174;42.688;23.344;2022-12-29T01:37:51;96285.38;;;4.26;83.96
20027;BME280;10174;42.688;23.344;2022-12-29T01:40:16;96271.44;;;4.17;83.79
20027;BME280;10174;42.688;23.344;2022-12-29T01:42:42;96287.22;;;4.25;83.89
20027;BME280;10174;42.688;23.344;2022-12-29T01:45:17;96165.63;;;3.51;84.46
20027;BME280;10174;42.688;23.344;2022-12-29T01:47:46;96252.97;;;4.09;84.47
20027;BME280;10174;42.688;23.344;2022-12-29T01:50:17;96254.69;;;4.23;84.15
20027;BME280;10174;42.688;23.344;2022-12-29T01:52:58;96282.75;;;4.39;83.98
20027;BME280;10174;42.688;23.344;2022-12-29T01:55:29;96268.44;;;4.40;83.57
20027;BME280;10174;42.688;23.344;2022-12-29T01:57:59;96250.78;;;4.26;83.27
20027;BME280;10174;42.688;23.344;2022-12-29T02:00:26;96247.94;;;4.27;82.90
20027;BME280;10174;42.688;23.344;2022-12-29T02:02:52;96276.03;;;4.43;83.28
20027;BME280;10174;42.688;23.344;2022-12-29T02:08:11;96265.78;;;4.47;82.99
20027;BME280;10174;42.688;23.344;2022-12-29T02:10:37;96270.69;;;4.43;82.46
20027;BME280;10174;42.688;23.344;2022-12-29T02:13:03;96259.66;;;4.46;83.02
20027;BME280;10174;42.688;23.344;2022-12-29T02:15:41;96203.91;;;4.12;82.37
20027;BME280;10174;42.688;23.344;2022-12-29T02:18:24;96237.28;;;4.21;83.03
20027;BME280;10174;42.688;23.344;2022-12-29T02:23:46;96258.00;;;4.45;83.20
20027;BME280;10174;42.688;23.344;2022-12-29T02:26:49;96250.44;;;4.36;82.88
20027;BME280;10174;42.688;23.344;2022-12-29T02:37:31;96262.69;;;4.30;83.47
20027;BME280;10174;42.688;23.344;2022-12-29T02:42:52;96265.38;;;4.37;83.21
20027;BME280;10174;42.688;23.344;2022-12-29T02:45:40;96259.41;;;4.28;83.52
20027;BME280;10174;42.688;23.344;2022-12-29T02:48:28;96253.88;;;4.36;83.58
20027;BME280;10174;42.688;23.344;2022-12-29T02:51:04;96269.84;;;4.36;82.80
20027;BME280;10174;42.688;23.344;2022-12-29T02:53:34;96262.88;;;4.22;83.72
20027;BME280;10174;42.688;23.344;2022-12-29T02:56:19;96262.91;;;4.35;83.10
20027;BME280;10174;42.688;23.344;2022-12-29T02:58:44;96263.53;;;4.37;83.34
20027;BME280;10174;42.688;23.344;2022-12-29T03:07:18;96249.56;;;4.22;83.84
20027;BME280;10174;42.688;23.344;2022-12-29T03:12:30;96253.44;;;4.26;83.27
20027;BME280;10174;42.688;23.344;2022-12-29T03:15:23;96243.22;;;4.23;83.23
20027;BME280;10174;42.688;23.344;2022-12-29T03:18:14;96247.34;;;4.32;82.64
20027;BME280;10174;42.688;23.344;2022-12-29T03:23:17;96241.97;;;4.19;83.16
20027;BME280;10174;42.688;23.344;2022-12-29T03:25:47;96205.44;;;3.86;83.48
20027;BME280;10174;42.688;23.344;2022-12-29T03:28:18;96123.50;;;3.41;83.52
20027;BME280;10174;42.688;23.344;2022-12-29T03:30:46;96240.53;;;4.09;83.43
20027;BME280;10174;42.688;23.344;2022-12-29T03:33:14;96218.59;;;3.94;83.96
20027;BME280;10174;42.688;23.344;2022-12-29T03:35:42;96251.31;;;4.01;84.23
20027;BME280;10174;42.688;23.344;2022-12-29T03:38:17;96248.66;;;3.95;84.04
20027;BME280;10174;42.688;23.344;2022-12-29T03:40:47;96225.44;;;3.68;84.60
20027;BME280;10174;42.688;23.344;2022-12-29T03:43:14;96248.75;;;3.73;85.26
20027;BME280;10174;42.688;23.344;2022-12-29T03:45:40;96251.13;;;3.61;84.86
20027;BME280;10174;42.688;23.344;2022-12-29T03:48:06;96259.31;;;3.60;85.02
20027;BME280;10174;42.688;23.344;2022-12-29T03:50:31;96129.63;;;2.72;85.33
20027;BME280;10174;42.688;23.344;2022-12-29T03:52:56;96264.34;;;3.48;85.33
20027;BME280;10174;42.688;23.344;2022-12-29T03:55:22;96235.00;;;3.28;85.34
20027;BME280;10174;42.688;23.344;2022-12-29T03:57:47;96194.75;;;2.96;85.74
20027;BME280;10174;42.688;23.344;2022-12-29T04:00:13;96256.66;;;3.31;85.54
20027;BME280;10174;42.688;23.344;2022-12-29T04:02:39;96243.84;;;3.07;85.52
20027;BME280;10174;42.688;23.344;2022-12-29T04:05:05;96241.47;;;2.90;85.79
20027;BME280;10174;42.688;23.344;2022-12-29T04:07:30;96256.44;;;2.98;85.83
20027;BME280;10174;42.688;23.344;2022-12-29T04:09:56;96248.19;;;2.86;86.25
20027;BME280;10174;42.688;23.344;2022-12-29T04:12:21;96209.53;;;2.55;86.60
20027;BME280;10174;42.688;23.344;2022-12-29T04:14:46;96250.09;;;2.71;86.61
20027;BME280;10174;42.688;23.344;2022-12-29T04:17:12;96238.16;;;2.60;86.64
20027;BME280;10174;42.688;23.344;2022-12-29T04:19:37;96257.16;;;2.63;87.24
20027;BME280;10174;42.688;23.344;2022-12-29T04:22:03;96265.31;;;2.62;87.48
20027;BME280;10174;42.688;23.344;2022-12-29T04:24:28;96256.59;;;2.46;87.13
20027;BME280;10174;42.688;23.344;2022-12-29T04:26:53;96275.22;;;2.53;87.26
20027;BME280;10174;42.688;23.344;2022-12-29T04:29:19;96236.16;;;2.25;87.59
20027;BME280;10174;42.688;23.344;2022-12-29T04:31:44;96236.75;;;2.21;88.00
20027;BME280;10174;42.688;23.344;2022-12-29T04:34:10;96227.88;;;2.13;87.94
20027;BME280;10174;42.688;23.344;2022-12-29T04:36:35;96165.75;;;1.65;88.16
20027;BME280;10174;42.688;23.344;2022-12-29T04:39:00;96254.13;;;2.23;88.71
20027;BME280;10174;42.688;23.344;2022-12-29T04:41:26;96275.81;;;2.34;88.12
20027;BME280;10174;42.688;23.344;2022-12-29T04:43:52;96287.72;;;2.38;88.13
20027;BME280;10174;42.688;23.344;2022-12-29T04:46:17;96283.59;;;2.35;88.38
20027;BME280;10174;42.688;23.344;2022-12-29T04:48:43;96285.81;;;2.31;88.24
20027;BME280;10174;42.688;23.344;2022-12-29T04:51:08;96284.16;;;2.30;87.82
20027;BME280;10174;42.688;23.344;2022-12-29T04:53:34;96270.97;;;2.16;87.91
20027;BME280;10174;42.688;23.344;2022-12-29T04:55:59;96306.78;;;2.26;88.35
20027;BME280;10174;42.688;23.344;2022-12-29T04:58:25;96298.03;;;2.11;88.69
20027;BME280;10174;42.688;23.344;2022-12-29T05:00:51;96292.19;;;2.01;88.95
20027;BME280;10174;42.688;23.344;2022-12-29T05:03:16;96300.88;;;2.09;88.62
20027;BME280;10174;42.688;23.344;2022-12-29T05:05:42;96268.44;;;1.92;88.98
20027;BME280;10174;42.688;23.344;2022-12-29T05:08:07;96301.13;;;2.00;89.30
20027;BME280;10174;42.688;23.344;2022-12-29T05:10:32;96294.94;;;1.92;89.71
20027;BME280;10174;42.688;23.344;2022-12-29T05:12:58;96296.75;;;2.07;89.45
20027;BME280;10174;42.688;23.344;2022-12-29T05:15:23;96280.31;;;1.96;89.56
20027;BME280;10174;42.688;23.344;2022-12-29T05:18:13;96295.25;;;2.19;89.59
20027;BME280;10174;42.688;23.344;2022-12-29T05:20:39;96300.44;;;2.27;88.69
20027;BME280;10174;42.688;23.344;2022-12-29T05:23:04;96305.06;;;2.19;88.82
20027;BME280;10174;42.688;23.344;2022-12-29T05:25:29;96312.81;;;2.20;88.85
20027;BME280;10174;42.688;23.344;2022-12-29T05:27:55;96292.47;;;2.27;88.73
20027;BME280;10174;42.688;23.344;2022-12-29T05:30:20;96280.25;;;2.26;89.17
20027;BME280;10174;42.688;23.344;2022-12-29T05:32:45;96297.19;;;2.47;89.06
20027;BME280;10174;42.688;23.344;2022-12-29T05:35:11;96287.63;;;2.46;88.71
20027;BME280;10174;42.688;23.344;2022-12-29T05:37:36;96273.50;;;2.45;88.57
20027;BME280;10174;42.688;23.344;2022-12-29T05:40:02;96281.38;;;2.54;88.16
20027;BME280;10174;42.688;23.344;2022-12-29T05:42:27;96314.66;;;2.78;88.00
20027;BME280;10174;42.688;23.344;2022-12-29T05:44:53;96308.56;;;2.84;87.64
20027;BME280;10174;42.688;23.344;2022-12-29T05:47:19;96274.78;;;2.71;87.76
20027;BME280;10174;42.688;23.344;2022-12-29T05:49:44;96299.22;;;2.88;87.88
20027;BME280;10174;42.688;23.344;2022-12-29T05:52:41;96301.38;;;2.99;87.67
20027;BME280;10174;42.688;23.344;2022-12-29T05:55:06;96302.06;;;3.08;87.51
20027;BME280;10174;42.688;23.344;2022-12-29T05:57:32;96301.47;;;3.13;87.34
20027;BME280;10174;42.688;23.344;2022-12-29T05:59:57;96310.63;;;3.32;86.88
20027;BME280;10174;42.688;23.344;2022-12-29T06:02:23;96206.13;;;2.61;86.48
20027;BME280;10174;42.688;23.344;2022-12-29T06:04:48;96319.69;;;3.37;86.45
20027;BME280;10174;42.688;23.344;2022-12-29T06:07:14;96317.25;;;3.43;86.31
20027;BME280;10174;42.688;23.344;2022-12-29T06:09:39;96237.66;;;2.99;86.06
20027;BME280;10174;42.688;23.344;2022-12-29T06:12:05;96249.00;;;3.15;85.76
20027;BME280;10174;42.688;23.344;2022-12-29T06:14:30;96294.44;;;3.55;85.42
20027;BME280;10174;42.688;23.344;2022-12-29T06:16:55;96325.78;;;3.66;85.42
20027;BME280;10174;42.688;23.344;2022-12-29T06:19:21;96311.72;;;3.72;85.26
20027;BME280;10174;42.688;23.344;2022-12-29T06:21:46;96321.00;;;3.83;84.95
20027;BME280;10174;42.688;23.344;2022-12-29T06:24:12;96319.56;;;3.81;85.10
20027;BME280;10174;42.688;23.344;2022-12-29T06:26:37;96293.75;;;3.74;84.62
20027;BME280;10174;42.688;23.344;2022-12-29T06:29:03;96318.19;;;3.98;84.85
20027;BME280;10174;42.688;23.344;2022-12-29T06:31:28;96308.75;;;3.89;85.06
20027;BME280;10174;42.688;23.344;2022-12-29T06:33:54;96296.47;;;3.88;85.05
20027;BME280;10174;42.688;23.344;2022-12-29T06:36:19;96319.47;;;4.02;84.11
20027;BME280;10174;42.688;23.344;2022-12-29T06:38:44;96322.69;;;3.91;84.02
20027;BME280;10174;42.688;23.344;2022-12-29T06:41:10;96309.72;;;3.81;84.02
20027;BME280;10174;42.688;23.344;2022-12-29T06:43:35;96320.44;;;3.95;83.87
20027;BME280;10174;42.688;23.344;2022-12-29T06:46:04;96327.91;;;4.13;83.46
20027;BME280;10174;42.688;23.344;2022-12-29T06:48:29;96314.34;;;4.01;82.91
20027;BME280;10174;42.688;23.344;2022-12-29T06:50:55;96323.81;;;4.17;82.47
20027;BME280;10174;42.688;23.344;2022-12-29T06:53:20;96332.22;;;4.20;82.50
20027;BME280;10174;42.688;23.344;2022-12-29T06:55:46;96300.03;;;4.02;82.80
20027;BME280;10174;42.688;23.344;2022-12-29T06:58:11;96333.03;;;4.21;83.01
20027;BME280;10174;42.688;23.344;2022-12-29T07:00:37;96338.44;;;4.34;82.08
20027;BME280;10174;42.688;23.344;2022-12-29T07:03:02;96327.94;;;4.26;81.77
20027;BME280;10174;42.688;23.344;2022-12-29T07:05:27;96244.06;;;3.82;81.51
20027;BME280;10174;42.688;23.344;2022-12-29T07:07:54;96330.03;;;4.37;81.40
20027;BME280;10174;42.688;23.344;2022-12-29T07:10:19;96328.00;;;4.39;81.14
20027;BME280;10174;42.688;23.344;2022-12-29T07:12:45;96332.75;;;4.51;80.65
20027;BME280;10174;42.688;23.344;2022-12-29T07:15:10;96329.03;;;4.38;81.05
20027;BME280;10174;42.688;23.344;2022-12-29T07:17:36;96339.09;;;4.50;81.48
20027;BME280;10174;42.688;23.344;2022-12-29T07:20:01;96313.69;;;4.40;81.00
20027;BME280;10174;42.688;23.344;2022-12-29T07:22:26;96328.31;;;4.71;80.58
20027;BME280;10174;42.688;23.344;2022-12-29T07:24:52;96333.66;;;4.91;79.97
20027;BME280;10174;42.688;23.344;2022-12-29T07:27:17;96328.97;;;5.00;79.34
20027;BME280;10174;42.688;23.344;2022-12-29T07:29:43;96309.94;;;5.16;78.30
20027;BME280;10174;42.688;23.344;2022-12-29T07:32:08;96258.84;;;4.53;78.35
20027;BME280;10174;42.688;23.344;2022-12-29T07:34:33;96308.09;;;5.10;78.03
20027;BME280;10174;42.688;23.344;2022-12-29T07:36:59;96319.97;;;5.28;77.71
20027;BME280;10174;42.688;23.344;2022-12-29T07:39:24;96331.66;;;5.40;77.62
20027;BME280;10174;42.688;23.344;2022-12-29T07:41:50;96340.47;;;5.34;77.55
20027;BME280;10174;42.688;23.344;2022-12-29T07:44:15;96330.22;;;5.31;77.51
20027;BME280;10174;42.688;23.344;2022-12-29T07:46:41;96315.88;;;5.18;78.05
20027;BME280;10174;42.688;23.344;2022-12-29T07:49:06;96333.94;;;5.37;78.54
20027;BME280;10174;42.688;23.344;2022-12-29T07:51:32;96222.66;;;4.78;77.57
20027;BME280;10174;42.688;23.344;2022-12-29T07:53:57;96340.28;;;5.76;76.74
20027;BME280;10174;42.688;23.344;2022-12-29T07:56:25;96343.09;;;6.07;76.17
20027;BME280;10174;42.688;23.344;2022-12-29T07:58:50;96296.13;;;5.86;74.60
20027;BME280;10174;42.688;23.344;2022-12-29T08:01:16;96321.44;;;6.36;73.93
20027;BME280;10174;42.688;23.344;2022-12-29T08:03:41;96327.50;;;6.56;73.52
20027;BME280;10174;42.688;23.344;2022-12-29T08:06:09;96260.00;;;6.04;73.15
20027;BME280;10174;42.688;23.344;2022-12-29T08:08:35;96330.84;;;6.45;73.37
20027;BME280;10174;42.688;23.344;2022-12-29T08:11:01;96324.41;;;6.59;80.68
20027;BME280;10174;42.688;23.344;2022-12-29T08:13:26;96349.13;;;6.87;73.27
20027;BME280;10174;42.688;23.344;2022-12-29T08:15:51;96326.31;;;6.52;73.47
20027;BME280;10174;42.688;23.344;2022-12-29T08:18:17;96328.78;;;6.47;73.42
20027;BME280;10174;42.688;23.344;2022-12-29T08:20:42;96331.22;;;6.55;73.28
20027;BME280;10174;42.688;23.344;2022-12-29T08:23:07;96338.19;;;6.56;72.92
20027;BME280;10174;42.688;23.344;2022-12-29T08:25:33;96327.94;;;6.53;73.42
20027;BME280;10174;42.688;23.344;2022-12-29T08:27:58;96299.09;;;6.69;72.74
20027;BME280;10174;42.688;23.344;2022-12-29T08:30:23;96307.31;;;6.67;71.93
20027;BME280;10174;42.688;23.344;2022-12-29T08:32:49;96336.56;;;6.55;72.88
20027;BME280;10174;42.688;23.344;2022-12-29T08:35:14;96223.19;;;5.61;73.31
20027;BME280;10174;42.688;23.344;2022-12-29T08:37:40;96332.16;;;6.22;74.67
20027;BME280;10174;42.688;23.344;2022-12-29T08:40:06;96319.59;;;6.43;73.74
20027;BME280;10174;42.688;23.344;2022-12-29T08:42:32;96305.00;;;6.39;73.40
20027;BME280;10174;42.688;23.344;2022-12-29T08:44:58;96329.41;;;6.49;73.74
20027;BME280;10174;42.688;23.344;2022-12-29T08:47:24;96331.69;;;6.39;73.48
20027;BME280;10174;42.688;23.344;2022-12-29T08:49:50;96307.50;;;6.34;74.23
20027;BME280;10174;42.688;23.344;2022-12-29T08:52:16;96303.78;;;6.35;73.73
20027;BME280;10174;42.688;23.344;2022-12-29T08:54:41;96301.31;;;6.33;73.29
20027;BME280;10174;42.688;23.344;2022-12-29T08:57:06;96321.50;;;6.68;73.07
20027;BME280;10174;42.688;23.344;2022-12-29T08:59:32;96262.19;;;6.59;72.57
20027;BME280;10174;42.688;23.344;2022-12-29T09:01:57;96307.56;;;6.98;72.37
20027;BME280;10174;42.688;23.344;2022-12-29T09:04:23;96304.78;;;7.11;71.99
20027;BME280;10174;42.688;23.344;2022-12-29T09:06:49;96318.00;;;7.31;71.18
20027;BME280;10174;42.688;23.344;2022-12-29T09:09:14;96314.38;;;7.25;71.48
20027;BME280;10174;42.688;23.344;2022-12-29T09:11:41;96297.72;;;6.91;72.18
20027;BME280;10174;42.688;23.344;2022-12-29T09:14:07;96184.72;;;6.34;71.80
20027;BME280;10174;42.688;23.344;2022-12-29T09:16:33;96293.66;;;7.14;71.80
20027;BME280;10174;42.688;23.344;2022-12-29T09:18:58;96310.72;;;7.13;72.06
20027;BME280;10174;42.688;23.344;2022-12-29T09:21:24;96300.53;;;7.03;72.68
20027;BME280;10174;42.688;23.344;2022-12-29T09:23:49;96312.09;;;6.97;72.98
20027;BME280;10174;42.688;23.344;2022-12-29T09:26:14;96275.75;;;6.89;72.54
20027;BME280;10174;42.688;23.344;2022-12-29T09:28:40;96289.97;;;6.83;73.13
20027;BME280;10174;42.688;23.344;2022-12-29T09:31:05;96285.31;;;7.04;72.51
20027;BME280;10174;42.688;23.344;2022-12-29T09:33:31;96303.34;;;7.15;72.72
20027;BME280;10174;42.688;23.344;2022-12-29T09:35:59;96261.44;;;7.09;71.87
20027;BME280;10174;42.688;23.344;2022-12-29T09:38:25;96258.28;;;6.93;72.52
20027;BME280;10174;42.688;23.344;2022-12-29T09:40:55;96291.72;;;7.28;72.15
20027;BME280;10174;42.688;23.344;2022-12-29T09:43:54;96280.09;;;7.41;71.29
20027;BME280;10174;42.688;23.344;2022-12-29T09:46:24;96290.22;;;7.07;72.03
20027;BME280;10174;42.688;23.344;2022-12-29T09:49:07;96261.88;;;7.06;71.82
20027;BME280;10174;42.688;23.344;2022-12-29T09:51:36;96262.25;;;7.09;72.01
20027;BME280;10174;42.688;23.344;2022-12-29T09:56:58;96237.44;;;7.02;72.26
20027;BME280;10174;42.688;23.344;2022-12-29T09:59:41;96272.06;;;7.16;73.12
20027;BME280;10174;42.688;23.344;2022-12-29T10:04:47;96165.09;;;6.78;71.93
20027;BME280;10174;42.688;23.344;2022-12-29T10:10:27;96259.78;;;7.58;71.10
20027;BME280;10174;42.688;23.344;2022-12-29T10:13:16;96254.88;;;7.74;71.49
20027;BME280;10174;42.688;23.344;2022-12-29T10:16:13;96252.44;;;7.91;70.90
20027;BME280;10174;42.688;23.344;2022-12-29T10:24:19;96202.25;;;7.49;71.72
20027;BME280;10174;42.688;23.344;2022-12-29T10:26:47;96237.03;;;7.67;71.71
20027;BME280;10174;42.688;23.344;2022-12-29T10:29:20;96234.47;;;7.36;73.06
20027;BME280;10174;42.688;23.344;2022-12-29T10:31:59;96237.16;;;7.54;73.04
20027;BME280;10174;42.688;23.344;2022-12-29T10:34:29;96242.53;;;7.54;73.04
20027;BME280;10174;42.688;23.344;2022-12-29T10:37:02;96204.78;;;7.44;72.40
20027;BME280;10174;42.688;23.344;2022-12-29T10:39:33;96235.22;;;7.68;72.50
20027;BME280;10174;42.688;23.344;2022-12-29T10:44:36;96232.59;;;8.17;71.35
20027;BME280;10174;42.688;23.344;2022-12-29T10:47:12;96221.28;;;8.15;70.61
20027;BME280;10174;42.688;23.344;2022-12-29T10:49:41;96217.56;;;8.16;70.57
20027;BME280;10174;42.688;23.344;2022-12-29T10:52:08;96156.78;;;7.86;70.27
20027;BME280;10174;42.688;23.344;2022-12-29T10:54:51;96219.16;;;8.35;69.91
20027;BME280;10174;42.688;23.344;2022-12-29T10:57:38;96210.69;;;8.38;70.40
20027;BME280;10174;42.688;23.344;2022-12-29T11:00:20;96205.69;;;8.42;70.10
20027;BME280;10174;42.688;23.344;2022-12-29T11:03:04;96199.13;;;8.38;70.05
20027;BME280;10174;42.688;23.344;2022-12-29T11:06:24;96184.94;;;8.37;70.03
20027;BME280;10174;42.688;23.344;2022-12-29T11:08:54;96203.22;;;8.41;69.98
20027;BME280;10174;42.688;23.344;2022-12-29T11:11:33;96192.97;;;8.37;70.02
20027;BME280;10174;42.688;23.344;2022-12-29T11:14:13;96096.97;;;8.11;68.86
20027;BME280;10174;42.688;23.344;2022-12-29T11:16:39;96185.56;;;8.82;68.55
20027;BME280;10174;42.688;23.344;2022-12-29T11:19:20;96192.66;;;8.88;68.49
20027;BME280;10174;42.688;23.344;2022-12-29T11:21:46;96191.94;;;8.81;68.68
20027;BME280;10174;42.688;23.344;2022-12-29T11:24:26;96186.72;;;8.86;68.34
20027;BME280;10174;42.688;23.344;2022-12-29T11:27:08;96176.84;;;8.98;68.46
20027;BME280;10174;42.688;23.344;2022-12-29T11:29:40;96178.22;;;9.01;68.21
20027;BME280;10174;42.688;23.344;2022-12-29T11:32:23;96183.72;;;9.06;67.89
20027;BME280;10174;42.688;23.344;2022-12-29T11:34:49;96072.59;;;8.43;67.89
20027;BME280;10174;42.688;23.344;2022-12-29T11:37:24;96171.94;;;9.19;67.90
20027;BME280;10174;42.688;23.344;2022-12-29T11:42:23;96065.81;;;8.28;67.82
20027;BME280;10174;42.688;23.344;2022-12-29T11:44:49;96169.84;;;8.97;68.06
20027;BME280;10174;42.688;23.344;2022-12-29T11:47:34;96129.53;;;8.92;67.74
20027;BME280;10174;42.688;23.344;2022-12-29T11:50:04;96161.22;;;9.19;67.69
20027;BME280;10174;42.688;23.344;2022-12-29T11:52:34;96139.19;;;9.29;66.71
20027;BME280;10174;42.688;23.344;2022-12-29T11:55:03;96140.47;;;9.26;66.53
20027;BME280;10174;42.688;23.344;2022-12-29T11:57:32;96146.28;;;9.99;64.52
20027;BME280;10174;42.688;23.344;2022-12-29T12:00:02;96158.34;;;10.71;63.34
20027;BME280;10174;42.688;23.344;2022-12-29T12:05:54;96107.47;;;10.64;62.27
20027;BME280;10174;42.688;23.344;2022-12-29T12:08:01;96133.34;;;10.54;62.79
20027;BME280;10174;42.688;23.344;2022-12-29T12:10:35;96153.88;;;10.60;62.94
20027;BME280;10174;42.688;23.344;2022-12-29T12:13:25;96149.53;;;10.59;63.17
20027;BME280;10174;42.688;23.344;2022-12-29T12:15:58;96147.66;;;10.76;62.57
20027;BME280;10174;42.688;23.344;2022-12-29T12:21:18;96140.00;;;11.19;61.48
20027;BME280;10174;42.688;23.344;2022-12-29T12:24:07;96145.03;;;11.71;59.98
20027;BME280;10174;42.688;23.344;2022-12-29T12:35:14;96125.25;;;11.21;60.74
20027;BME280;10174;42.688;23.344;2022-12-29T12:43:49;96125.16;;;11.55;59.98
20027;BME280;10174;42.688;23.344;2022-12-29T13:00:01;96125.06;;;12.39;57.35
20027;BME280;10174;42.688;23.344;2022-12-29T13:05:56;96130.44;;;11.67;59.59
20027;BME280;10174;42.688;23.344;2022-12-29T13:10:54;96132.25;;;10.55;63.54
20027;BME280;10174;42.688;23.344;2022-12-29T13:13:55;96126.41;;;10.58;63.63
20027;BME280;10174;42.688;23.344;2022-12-29T13:16:36;96120.22;;;10.40;64.33
20027;BME280;10174;42.688;23.344;2022-12-29T13:27:44;96130.19;;;9.99;66.01
20027;BME280;10174;42.688;23.344;2022-12-29T13:37:50;96035.25;;;9.48;66.58
20027;BME280;10174;42.688;23.344;2022-12-29T13:40:18;96127.94;;;10.08;66.99
20027;BME280;10174;42.688;23.344;2022-12-29T13:42:48;96135.66;;;9.92;66.76
20027;BME280;10174;42.688;23.344;2022-12-29T13:45:16;96091.41;;;9.66;66.88
20027;BME280;10174;42.688;23.344;2022-12-29T13:47:51;96105.13;;;9.81;67.29
20027;BME280;10174;42.688;23.344;2022-12-29T13:50:22;96135.91;;;9.91;66.60
20027;BME280;10174;42.688;23.344;2022-12-29T13:58:28;96125.50;;;9.54;68.52
20027;BME280;10174;42.688;23.344;2022-12-29T14:06:32;96128.31;;;9.59;68.76
20027;BME280;10174;42.688;23.344;2022-12-29T14:09:05;96130.78;;;9.49;69.19
20027;BME280;10174;42.688;23.344;2022-12-29T14:11:34;96138.59;;;9.38;69.31
20027;BME280;10174;42.688;23.344;2022-12-29T14:14:19;96144.91;;;9.32;69.42
20027;BME280;10174;42.688;23.344;2022-12-29T14:16:46;96141.28;;;9.26;69.96
20027;BME280;10174;42.688;23.344;2022-12-29T14:21:40;96150.06;;;9.10;70.76
20027;BME280;10174;42.688;23.344;2022-12-29T14:27:01;96158.19;;;8.80;71.86
20027;BME280;10174;42.688;23.344;2022-12-29T14:29:47;96158.84;;;8.63;72.51
20027;BME280;10174;42.688;23.344;2022-12-29T14:34:58;96161.03;;;8.54;72.51
20027;BME280;10174;42.688;23.344;2022-12-29T14:40:08;96168.75;;;8.63;72.42
20027;BME280;10174;42.688;23.344;2022-12-29T14:42:40;96166.16;;;8.56;72.53
20027;BME280;10174;42.688;23.344;2022-12-29T14:47:39;96146.69;;;8.49;72.67
20027;BME280;10174;42.688;23.344;2022-12-29T14:50:39;96172.25;;;8.63;72.46
20027;BME280;10174;42.688;23.344;2022-12-29T14:53:06;96175.38;;;8.60;72.79
20027;BME280;10174;42.688;23.344;2022-12-29T14:55:55;96176.59;;;8.46;73.23
20027;BME280;10174;42.688;23.344;2022-12-29T14:58:27;96179.00;;;8.66;72.15
20027;BME280;10174;42.688;23.344;2022-12-29T15:00:54;96168.53;;;8.64;72.26
20027;BME280;10174;42.688;23.344;2022-12-29T15:03:46;96176.56;;;8.64;72.41
20027;BME280;10174;42.688;23.344;2022-12-29T15:06:15;96074.00;;;7.91;72.78
20027;BME280;10174;42.688;23.344;2022-12-29T15:08:49;96128.28;;;8.10;73.33
20027;BME280;10174;42.688;23.344;2022-12-29T15:11:25;96147.50;;;8.19;73.57
20027;BME280;10174;42.688;23.344;2022-12-29T15:13:55;96159.59;;;8.10;74.06
20027;BME280;10174;42.688;23.344;2022-12-29T15:16:33;96169.56;;;8.02;75.00
20027;BME280;10174;42.688;23.344;2022-12-29T15:19:01;96160.66;;;7.90;75.20
20027;BME280;10174;42.688;23.344;2022-12-29T15:21:31;96174.16;;;7.95;74.98
20027;BME280;10174;42.688;23.344;2022-12-29T15:23:56;96144.16;;;7.93;74.29
20027;BME280;10174;42.688;23.344;2022-12-29T15:26:22;96170.75;;;8.07;74.21